Burnet Municipal-Craddock, TX

1:49 AM CDT on October 23, 2014 (GMT -0500)
Lago Vista | Change Station
CLOSE
Current Station
Airport
Location: Lago Vista,
Elevation: 1230 ft
Nearby Weather Stations

Elev 1230 ft 30.50 °N, 97.97 °W | Updated 14 minutes ago

Mostly Cloudy
Mostly Cloudy
70 °F
Feels Like 70 °F
N
6
Wind Variable Wind from ESE

Today
High -- | Low -- °F
--% Chance of Precip.
Yesterday
High -- | Low -- °F
Precip. -- in
7:41 AM 6:53 PM
Waning Crescent, 0% visible
Pressure 30.11 in
Visibility 10.0 miles
Clouds Clear
Dew Point 57 °F
Humidity 64%
Rainfall 0.00 in
Snow Depth Not available.
UV 0 out of 12
Pollen 6.20 out of 12
Air Quality Not available.
Flu Activity Sporadic
METAR KRYW 230635Z AUTO 11005KT 10SM CLR 21/14 A3011 RMK AO2 T02110140

More Conditions Fewer Conditions

Pressure 30.11 in
Visibility 10.0 miles
Clouds Clear
Dew Point 57 °F
Humidity 64%
Rainfall 0.00 in
Snow Depth Not available.
UV 0 out of 12
Pollen 6.20 out of 12
Air Quality Not available.
Flu Activity Sporadic
METAR KRYW 230635Z AUTO 11005KT 10SM CLR 21/14 A3011 RMK AO2 T02110140

More Conditions Fewer Conditions

Nowcast | as of 1:48 am CDT on October 23, 2014

Isolated to scattered light showers will continue across the Rio Grande plains...southern Edwards Plateau and Hill Country through 4 am CDT. This activity will move northeast around 15 mph. Rainfall totals will generally be a few hundredths of an inch or less.

×

10-Day Weather Forecast

Almanac

Astronomy

Oct. 23, 2014 Rise Set
Actual Time 7:41 AM CDT 6:53 PM CDT
Civil Twilight 7:16 AM CDT 7:17 PM CDT
Nautical Twilight 6:48 AM CDT 7:45 PM CDT
Astronomical Twilight 6:20 AM CDT 8:13 PM CDT
Moon 7:23 AM CDT 6:55 PM CDT
Length of Visible Light 12h 01m
Length of Day
11h 12m
Tomorrow will be 1m 44s shorter.
Waning Crescent, 0% of the Moon is Illuminated
Today
Waning Crescent
Oct 23
New
Oct 30
First Quarter
Nov 6
Full
Nov 14
Last Quarter

Today's Extremes

State Highs State Lows

Community

WunderPhotos

Upload Photos

1,764,194 photos uploaded!

Nearby

Snow Depth

Station Depth Elevation
No new snow has been reported.

Earthquake Activity

City Distance Mag. Time & Date
No recent earthquake activity has been reported nearby.
Minimum magnitude displayed is 2.5.

Coastal Water Temperatures

Place Temperature
No Stations Reporting

Nearby Weather Stations